sensor_id;sensor_type;location;lat;lon;timestamp;P1;durP1;ratioP1;P2;durP2;ratioP2
2430;SDS011;1226;48.998;9.300;2022-07-25T00:01:42;12.14;;;10.00;;
2430;SDS011;1226;48.998;9.300;2022-07-25T00:04:08;12.90;;;11.42;;
2430;SDS011;1226;48.998;9.300;2022-07-25T00:06:34;12.04;;;10.76;;
2430;SDS011;1226;48.998;9.300;2022-07-25T00:09:00;12.68;;;11.38;;
2430;SDS011;1226;48.998;9.300;2022-07-25T00:11:26;13.98;;;10.86;;
2430;SDS011;1226;48.998;9.300;2022-07-25T00:13:52;11.92;;;10.72;;
2430;SDS011;1226;48.998;9.300;2022-07-25T00:16:17;12.94;;;10.80;;
2430;SDS011;1226;48.998;9.300;2022-07-25T00:18:43;12.04;;;10.46;;
2430;SDS011;1226;48.998;9.300;2022-07-25T00:21:09;12.14;;;10.94;;
2430;SDS011;1226;48.998;9.300;2022-07-25T00:23:35;10.54;;;9.54;;
2430;SDS011;1226;48.998;9.300;2022-07-25T00:26:01;11.68;;;10.48;;
2430;SDS011;1226;48.998;9.300;2022-07-25T00:28:27;12.66;;;10.28;;
2430;SDS011;1226;48.998;9.300;2022-07-25T00:30:53;12.16;;;10.86;;
2430;SDS011;1226;48.998;9.300;2022-07-25T00:33:19;12.32;;;10.14;;
2430;SDS011;1226;48.998;9.300;2022-07-25T00:35:44;12.02;;;10.82;;
2430;SDS011;1226;48.998;9.300;2022-07-25T00:38:10;12.14;;;10.72;;
2430;SDS011;1226;48.998;9.300;2022-07-25T00:40:36;11.86;;;10.66;;
2430;SDS011;1226;48.998;9.300;2022-07-25T00:43:03;13.04;;;10.32;;
2430;SDS011;1226;48.998;9.300;2022-07-25T00:45:28;12.30;;;10.88;;
2430;SDS011;1226;48.998;9.300;2022-07-25T00:47:54;11.76;;;10.58;;
2430;SDS011;1226;48.998;9.300;2022-07-25T00:50:20;12.44;;;11.14;;
2430;SDS011;1226;48.998;9.300;2022-07-25T00:52:46;12.42;;;11.12;;
2430;SDS011;1226;48.998;9.300;2022-07-25T00:55:11;11.62;;;10.48;;
2430;SDS011;1226;48.998;9.300;2022-07-25T00:57:37;12.10;;;10.84;;
2430;SDS011;1226;48.998;9.300;2022-07-25T01:00:04;11.42;;;10.10;;
2430;SDS011;1226;48.998;9.300;2022-07-25T01:02:29;12.18;;;10.94;;
2430;SDS011;1226;48.998;9.300;2022-07-25T01:04:55;13.28;;;11.12;;
2430;SDS011;1226;48.998;9.300;2022-07-25T01:07:21;12.24;;;11.00;;
2430;SDS011;1226;48.998;9.300;2022-07-25T01:09:47;14.58;;;12.48;;
2430;SDS011;1226;48.998;9.300;2022-07-25T01:12:18;12.84;;;10.84;;
2430;SDS011;1226;48.998;9.300;2022-07-25T01:14:43;15.44;;;11.48;;
2430;SDS011;1226;48.998;9.300;2022-07-25T01:17:09;12.44;;;10.94;;
2430;SDS011;1226;48.998;9.300;2022-07-25T01:19:35;12.74;;;11.44;;
2430;SDS011;1226;48.998;9.300;2022-07-25T01:22:01;11.08;;;9.98;;
2430;SDS011;1226;48.998;9.300;2022-07-25T01:24:27;12.82;;;10.78;;
2430;SDS011;1226;48.998;9.300;2022-07-25T01:26:53;12.96;;;10.78;;
2430;SDS011;1226;48.998;9.300;2022-07-25T01:29:19;13.06;;;11.66;;
2430;SDS011;1226;48.998;9.300;2022-07-25T01:31:44;13.28;;;11.14;;
2430;SDS011;1226;48.998;9.300;2022-07-25T01:34:10;12.92;;;11.62;;
2430;SDS011;1226;48.998;9.300;2022-07-25T01:36:36;12.62;;;11.38;;
2430;SDS011;1226;48.998;9.300;2022-07-25T01:39:02;11.96;;;10.76;;
2430;SDS011;1226;48.998;9.300;2022-07-25T01:41:28;13.36;;;11.14;;
2430;SDS011;1226;48.998;9.300;2022-07-25T01:43:54;14.04;;;12.22;;
2430;SDS011;1226;48.998;9.300;2022-07-25T01:46:20;11.76;;;10.64;;
2430;SDS011;1226;48.998;9.300;2022-07-25T01:48:46;13.74;;;12.30;;
2430;SDS011;1226;48.998;9.300;2022-07-25T01:51:12;12.18;;;10.88;;
2430;SDS011;1226;48.998;9.300;2022-07-25T01:53:38;13.74;;;10.82;;
2430;SDS011;1226;48.998;9.300;2022-07-25T01:56:04;13.50;;;11.90;;
2430;SDS011;1226;48.998;9.300;2022-07-25T01:58:30;12.42;;;11.12;;
2430;SDS011;1226;48.998;9.300;2022-07-25T02:00:55;14.10;;;12.16;;
2430;SDS011;1226;48.998;9.300;2022-07-25T02:03:21;12.04;;;10.80;;
2430;SDS011;1226;48.998;9.300;2022-07-25T02:05:53;12.88;;;10.72;;
2430;SDS011;1226;48.998;9.300;2022-07-25T02:08:19;11.70;;;10.50;;
2430;SDS011;1226;48.998;9.300;2022-07-25T02:10:45;14.36;;;11.84;;
2430;SDS011;1226;48.998;9.300;2022-07-25T02:13:11;13.10;;;11.16;;
2430;SDS011;1226;48.998;9.300;2022-07-25T02:15:37;11.96;;;10.58;;
2430;SDS011;1226;48.998;9.300;2022-07-25T02:18:02;11.80;;;10.64;;
2430;SDS011;1226;48.998;9.300;2022-07-25T02:20:28;10.88;;;9.78;;
2430;SDS011;1226;48.998;9.300;2022-07-25T02:22:54;14.16;;;11.00;;
2430;SDS011;1226;48.998;9.300;2022-07-25T02:25:20;13.36;;;11.98;;
2430;SDS011;1226;48.998;9.300;2022-07-25T02:27:46;11.92;;;10.58;;
2430;SDS011;1226;48.998;9.300;2022-07-25T02:30:12;12.70;;;10.26;;
2430;SDS011;1226;48.998;9.300;2022-07-25T02:32:38;13.00;;;10.50;;
2430;SDS011;1226;48.998;9.300;2022-07-25T02:35:04;12.98;;;11.18;;
2430;SDS011;1226;48.998;9.300;2022-07-25T02:37:29;12.24;;;10.24;;
2430;SDS011;1226;48.998;9.300;2022-07-25T02:39:55;11.38;;;10.18;;
2430;SDS011;1226;48.998;9.300;2022-07-25T02:42:21;11.34;;;10.14;;
2430;SDS011;1226;48.998;9.300;2022-07-25T02:44:47;13.28;;;10.70;;
2430;SDS011;1226;48.998;9.300;2022-07-25T02:47:13;11.56;;;10.36;;
2430;SDS011;1226;48.998;9.300;2022-07-25T02:49:39;13.40;;;10.44;;
2430;SDS011;1226;48.998;9.300;2022-07-25T02:52:05;12.52;;;10.92;;
2430;SDS011;1226;48.998;9.300;2022-07-25T02:54:31;13.68;;;11.44;;
2430;SDS011;1226;48.998;9.300;2022-07-25T02:56:57;11.44;;;10.24;;
2430;SDS011;1226;48.998;9.300;2022-07-25T02:59:23;12.52;;;10.06;;
2430;SDS011;1226;48.998;9.300;2022-07-25T03:01:49;11.86;;;10.58;;
2430;SDS011;1226;48.998;9.300;2022-07-25T03:04:14;14.06;;;11.22;;
2430;SDS011;1226;48.998;9.300;2022-07-25T03:06:40;12.46;;;11.20;;
2430;SDS011;1226;48.998;9.300;2022-07-25T03:09:06;11.62;;;10.42;;
2430;SDS011;1226;48.998;9.300;2022-07-25T03:11:32;12.16;;;10.26;;
2430;SDS011;1226;48.998;9.300;2022-07-25T03:13:58;12.30;;;9.86;;
2430;SDS011;1226;48.998;9.300;2022-07-25T03:16:24;13.28;;;10.84;;
2430;SDS011;1226;48.998;9.300;2022-07-25T03:18:50;12.92;;;11.52;;
2430;SDS011;1226;48.998;9.300;2022-07-25T03:21:15;12.68;;;11.14;;
2430;SDS011;1226;48.998;9.300;2022-07-25T03:23:41;11.78;;;10.20;;
2430;SDS011;1226;48.998;9.300;2022-07-25T03:26:07;12.26;;;11.00;;
2430;SDS011;1226;48.998;9.300;2022-07-25T03:28:33;14.02;;;11.24;;
2430;SDS011;1226;48.998;9.300;2022-07-25T03:31:00;12.08;;;10.82;;
2430;SDS011;1226;48.998;9.300;2022-07-25T03:33:25;12.60;;;10.20;;
2430;SDS011;1226;48.998;9.300;2022-07-25T03:35:51;11.50;;;10.30;;
2430;SDS011;1226;48.998;9.300;2022-07-25T03:38:17;11.70;;;10.50;;
2430;SDS011;1226;48.998;9.300;2022-07-25T03:40:42;12.02;;;10.74;;
2430;SDS011;1226;48.998;9.300;2022-07-25T03:43:08;12.40;;;11.10;;
2430;SDS011;1226;48.998;9.300;2022-07-25T03:45:34;14.90;;;10.62;;
2430;SDS011;1226;48.998;9.300;2022-07-25T03:48:00;12.32;;;11.06;;
2430;SDS011;1226;48.998;9.300;2022-07-25T03:50:26;12.98;;;10.72;;
2430;SDS011;1226;48.998;9.300;2022-07-25T03:52:52;11.92;;;10.60;;
2430;SDS011;1226;48.998;9.300;2022-07-25T03:55:18;13.10;;;11.12;;
2430;SDS011;1226;48.998;9.300;2022-07-25T03:57:44;13.44;;;12.04;;
2430;SDS011;1226;48.998;9.300;2022-07-25T04:00:10;15.18;;;11.78;;
2430;SDS011;1226;48.998;9.300;2022-07-25T04:02:35;11.90;;;10.62;;
2430;SDS011;1226;48.998;9.300;2022-07-25T04:05:04;15.00;;;13.40;;
2430;SDS011;1226;48.998;9.300;2022-07-25T04:07:28;13.80;;;11.90;;
2430;SDS011;1226;48.998;9.300;2022-07-25T04:09:54;14.60;;;11.40;;
2430;SDS011;1226;48.998;9.300;2022-07-25T04:12:20;18.02;;;12.48;;
2430;SDS011;1226;48.998;9.300;2022-07-25T04:14:45;15.70;;;11.52;;
2430;SDS011;1226;48.998;9.300;2022-07-25T04:17:11;13.48;;;12.06;;
2430;SDS011;1226;48.998;9.300;2022-07-25T04:19:37;12.74;;;11.44;;
2430;SDS011;1226;48.998;9.300;2022-07-25T04:22:03;16.64;;;10.82;;
2430;SDS011;1226;48.998;9.300;2022-07-25T04:24:29;13.08;;;10.72;;
2430;SDS011;1226;48.998;9.300;2022-07-25T04:26:55;12.30;;;10.76;;
2430;SDS011;1226;48.998;9.300;2022-07-25T04:29:21;13.76;;;10.92;;
2430;SDS011;1226;48.998;9.300;2022-07-25T04:31:47;13.06;;;11.16;;
2430;SDS011;1226;48.998;9.300;2022-07-25T04:34:12;12.82;;;10.74;;
2430;SDS011;1226;48.998;9.300;2022-07-25T04:36:38;12.92;;;11.62;;
2430;SDS011;1226;48.998;9.300;2022-07-25T04:39:04;14.74;;;11.76;;
2430;SDS011;1226;48.998;9.300;2022-07-25T04:41:30;13.78;;;10.80;;
2430;SDS011;1226;48.998;9.300;2022-07-25T04:43:56;13.90;;;11.02;;
2430;SDS011;1226;48.998;9.300;2022-07-25T04:46:22;13.40;;;12.10;;
2430;SDS011;1226;48.998;9.300;2022-07-25T04:48:48;13.60;;;12.08;;
2430;SDS011;1226;48.998;9.300;2022-07-25T04:51:14;13.38;;;11.98;;
2430;SDS011;1226;48.998;9.300;2022-07-25T04:53:39;13.84;;;10.80;;
2430;SDS011;1226;48.998;9.300;2022-07-25T04:56:05;16.00;;;12.04;;
2430;SDS011;1226;48.998;9.300;2022-07-25T04:58:31;14.04;;;12.54;;
2430;SDS011;1226;48.998;9.300;2022-07-25T05:00:57;14.92;;;11.64;;
2430;SDS011;1226;48.998;9.300;2022-07-25T05:03:23;14.30;;;11.62;;
2430;SDS011;1226;48.998;9.300;2022-07-25T05:05:49;14.68;;;12.02;;
2430;SDS011;1226;48.998;9.300;2022-07-25T05:08:15;15.34;;;12.74;;
2430;SDS011;1226;48.998;9.300;2022-07-25T05:10:40;13.82;;;12.42;;
2430;SDS011;1226;48.998;9.300;2022-07-25T05:13:06;15.18;;;12.76;;
2430;SDS011;1226;48.998;9.300;2022-07-25T05:15:32;13.46;;;11.70;;
2430;SDS011;1226;48.998;9.300;2022-07-25T05:17:58;13.24;;;11.90;;
2430;SDS011;1226;48.998;9.300;2022-07-25T05:20:24;14.18;;;12.46;;
2430;SDS011;1226;48.998;9.300;2022-07-25T05:22:50;14.06;;;12.56;;
2430;SDS011;1226;48.998;9.300;2022-07-25T05:25:16;14.16;;;12.28;;
2430;SDS011;1226;48.998;9.300;2022-07-25T05:27:42;14.90;;;12.06;;
2430;SDS011;1226;48.998;9.300;2022-07-25T05:30:08;13.22;;;11.82;;
2430;SDS011;1226;48.998;9.300;2022-07-25T05:32:33;14.30;;;11.42;;
2430;SDS011;1226;48.998;9.300;2022-07-25T05:34:59;13.72;;;12.32;;
2430;SDS011;1226;48.998;9.300;2022-07-25T05:37:25;12.72;;;11.30;;
2430;SDS011;1226;48.998;9.300;2022-07-25T05:39:51;13.46;;;12.04;;
2430;SDS011;1226;48.998;9.300;2022-07-25T05:42:17;13.34;;;11.94;;
2430;SDS011;1226;48.998;9.300;2022-07-25T05:44:43;13.96;;;11.94;;
2430;SDS011;1226;48.998;9.300;2022-07-25T05:47:09;12.82;;;10.68;;
2430;SDS011;1226;48.998;9.300;2022-07-25T05:49:34;11.30;;;10.18;;
2430;SDS011;1226;48.998;9.300;2022-07-25T05:52:00;14.64;;;11.46;;
2430;SDS011;1226;48.998;9.300;2022-07-25T05:54:26;13.30;;;10.88;;
2430;SDS011;1226;48.998;9.300;2022-07-25T05:56:52;14.02;;;11.50;;
2430;SDS011;1226;48.998;9.300;2022-07-25T05:59:18;15.34;;;12.02;;
2430;SDS011;1226;48.998;9.300;2022-07-25T06:01:44;13.72;;;12.18;;
2430;SDS011;1226;48.998;9.300;2022-07-25T06:04:09;22.34;;;12.36;;
2430;SDS011;1226;48.998;9.300;2022-07-25T06:06:35;16.32;;;12.00;;
2430;SDS011;1226;48.998;9.300;2022-07-25T06:09:01;12.30;;;10.92;;
2430;SDS011;1226;48.998;9.300;2022-07-25T06:11:27;15.78;;;11.50;;
2430;SDS011;1226;48.998;9.300;2022-07-25T06:13:53;13.96;;;11.00;;
2430;SDS011;1226;48.998;9.300;2022-07-25T06:16:19;17.22;;;10.20;;
2430;SDS011;1226;48.998;9.300;2022-07-25T06:18:46;15.04;;;10.90;;
2430;SDS011;1226;48.998;9.300;2022-07-25T06:21:11;13.50;;;12.10;;
2430;SDS011;1226;48.998;9.300;2022-07-25T06:23:37;17.12;;;11.78;;
2430;SDS011;1226;48.998;9.300;2022-07-25T06:26:03;14.84;;;11.34;;
2430;SDS011;1226;48.998;9.300;2022-07-25T06:28:29;20.06;;;11.32;;
2430;SDS011;1226;48.998;9.300;2022-07-25T06:30:55;15.80;;;11.28;;
2430;SDS011;1226;48.998;9.300;2022-07-25T06:33:21;12.14;;;10.76;;
2430;SDS011;1226;48.998;9.300;2022-07-25T06:35:47;11.78;;;10.58;;
2430;SDS011;1226;48.998;9.300;2022-07-25T06:38:13;10.16;;;9.10;;
2430;SDS011;1226;48.998;9.300;2022-07-25T06:40:38;11.12;;;10.12;;
2430;SDS011;1226;48.998;9.300;2022-07-25T06:43:04;11.06;;;10.02;;
2430;SDS011;1226;48.998;9.300;2022-07-25T06:45:30;10.06;;;9.02;;
2430;SDS011;1226;48.998;9.300;2022-07-25T06:47:56;12.32;;;10.86;;
2430;SDS011;1226;48.998;9.300;2022-07-25T06:50:22;10.78;;;9.74;;
2430;SDS011;1226;48.998;9.300;2022-07-25T06:52:48;11.20;;;10.10;;
2430;SDS011;1226;48.998;9.300;2022-07-25T06:55:14;12.22;;;10.92;;
2430;SDS011;1226;48.998;9.300;2022-07-25T06:57:40;11.86;;;10.72;;
2430;SDS011;1226;48.998;9.300;2022-07-25T07:00:06;11.04;;;9.94;;
2430;SDS011;1226;48.998;9.300;2022-07-25T07:02:31;10.12;;;9.18;;
2430;SDS011;1226;48.998;9.300;2022-07-25T07:04:57;11.56;;;10.10;;
2430;SDS011;1226;48.998;9.300;2022-07-25T07:07:23;11.66;;;9.90;;
2430;SDS011;1226;48.998;9.300;2022-07-25T07:09:49;11.78;;;10.58;;
2430;SDS011;1226;48.998;9.300;2022-07-25T07:12:15;10.68;;;9.56;;
2430;SDS011;1226;48.998;9.300;2022-07-25T07:14:41;12.06;;;10.86;;
2430;SDS011;1226;48.998;9.300;2022-07-25T07:17:07;10.82;;;9.72;;
2430;SDS011;1226;48.998;9.300;2022-07-25T07:19:32;12.98;;;11.10;;
2430;SDS011;1226;48.998;9.300;2022-07-25T07:21:58;12.60;;;11.30;;
2430;SDS011;1226;48.998;9.300;2022-07-25T07:24:24;13.82;;;11.78;;
2430;SDS011;1226;48.998;9.300;2022-07-25T07:26:50;14.28;;;10.96;;
2430;SDS011;1226;48.998;9.300;2022-07-25T07:29:16;22.90;;;12.22;;
2430;SDS011;1226;48.998;9.300;2022-07-25T07:31:42;12.14;;;10.30;;
2430;SDS011;1226;48.998;9.300;2022-07-25T07:34:08;17.56;;;11.56;;
2430;SDS011;1226;48.998;9.300;2022-07-25T07:36:33;11.56;;;10.00;;
2430;SDS011;1226;48.998;9.300;2022-07-25T07:38:59;12.04;;;10.80;;
2430;SDS011;1226;48.998;9.300;2022-07-25T07:41:25;13.66;;;10.96;;
2430;SDS011;1226;48.998;9.300;2022-07-25T07:43:51;13.74;;;11.76;;
2430;SDS011;1226;48.998;9.300;2022-07-25T07:46:17;13.10;;;11.68;;
2430;SDS011;1226;48.998;9.300;2022-07-25T07:48:43;13.24;;;10.20;;
2430;SDS011;1226;48.998;9.300;2022-07-25T07:51:09;12.28;;;10.42;;
2430;SDS011;1226;48.998;9.300;2022-07-25T07:53:35;12.36;;;11.22;;
2430;SDS011;1226;48.998;9.300;2022-07-25T07:56:06;13.36;;;12.02;;
2430;SDS011;1226;48.998;9.300;2022-07-25T07:58:32;12.18;;;10.98;;
2430;SDS011;1226;48.998;9.300;2022-07-25T08:00:58;14.50;;;11.78;;
2430;SDS011;1226;48.998;9.300;2022-07-25T08:03:24;12.36;;;11.06;;
2430;SDS011;1226;48.998;9.300;2022-07-25T08:05:50;12.56;;;11.34;;
2430;SDS011;1226;48.998;9.300;2022-07-25T08:08:16;11.78;;;10.58;;
2430;SDS011;1226;48.998;9.300;2022-07-25T08:10:43;12.44;;;10.86;;
2430;SDS011;1226;48.998;9.300;2022-07-25T08:13:15;11.44;;;10.00;;
2430;SDS011;1226;48.998;9.300;2022-07-25T08:15:36;15.08;;;11.36;;
2430;SDS011;1226;48.998;9.300;2022-07-25T08:18:02;11.82;;;10.66;;
2430;SDS011;1226;48.998;9.300;2022-07-25T08:20:28;11.64;;;10.60;;
2430;SDS011;1226;48.998;9.300;2022-07-25T08:22:54;12.14;;;11.02;;
2430;SDS011;1226;48.998;9.300;2022-07-25T08:25:20;10.68;;;9.72;;
2430;SDS011;1226;48.998;9.300;2022-07-25T08:27:46;13.16;;;11.96;;
2430;SDS011;1226;48.998;9.300;2022-07-25T08:30:13;12.52;;;11.32;;
2430;SDS011;1226;48.998;9.300;2022-07-25T08:35:09;14.94;;;12.14;;
2430;SDS011;1226;48.998;9.300;2022-07-25T08:37:35;13.38;;;12.18;;
2430;SDS011;1226;48.998;9.300;2022-07-25T08:40:01;12.34;;;10.94;;
2430;SDS011;1226;48.998;9.300;2022-07-25T08:42:27;11.32;;;10.22;;
2430;SDS011;1226;48.998;9.300;2022-07-25T08:44:57;11.86;;;10.66;;
2430;SDS011;1226;48.998;9.300;2022-07-25T08:47:19;13.80;;;12.48;;
2430;SDS011;1226;48.998;9.300;2022-07-25T08:49:45;12.16;;;10.30;;
2430;SDS011;1226;48.998;9.300;2022-07-25T08:52:10;11.90;;;10.78;;
2430;SDS011;1226;48.998;9.300;2022-07-25T08:54:36;12.70;;;10.68;;
2430;SDS011;1226;48.998;9.300;2022-07-25T08:57:02;12.68;;;11.42;;
2430;SDS011;1226;48.998;9.300;2022-07-25T08:59:29;14.68;;;10.78;;
2430;SDS011;1226;48.998;9.300;2022-07-25T09:01:54;12.10;;;10.74;;
2430;SDS011;1226;48.998;9.300;2022-07-25T09:04:20;12.16;;;11.02;;
2430;SDS011;1226;48.998;9.300;2022-07-25T09:06:48;12.02;;;10.88;;
2430;SDS011;1226;48.998;9.300;2022-07-25T09:09:13;12.26;;;10.98;;
2430;SDS011;1226;48.998;9.300;2022-07-25T09:11:39;12.00;;;10.80;;
2430;SDS011;1226;48.998;9.300;2022-07-25T09:14:06;11.24;;;10.16;;
2430;SDS011;1226;48.998;9.300;2022-07-25T09:16:32;11.54;;;10.44;;
2430;SDS011;1226;48.998;9.300;2022-07-25T09:21:28;11.00;;;9.90;;
2430;SDS011;1226;48.998;9.300;2022-07-25T09:23:54;11.88;;;10.70;;
2430;SDS011;1226;48.998;9.300;2022-07-25T09:26:20;11.58;;;10.48;;
2430;SDS011;1226;48.998;9.300;2022-07-25T09:28:47;11.84;;;10.64;;
2430;SDS011;1226;48.998;9.300;2022-07-25T09:31:12;11.28;;;9.40;;
2430;SDS011;1226;48.998;9.300;2022-07-25T09:33:44;11.92;;;10.80;;
2430;SDS011;1226;48.998;9.300;2022-07-25T09:36:09;10.96;;;9.96;;
2430;SDS011;1226;48.998;9.300;2022-07-25T09:38:34;12.24;;;11.02;;
2430;SDS011;1226;48.998;9.300;2022-07-25T09:41:00;10.46;;;9.56;;
2430;SDS011;1226;48.998;9.300;2022-07-25T09:45:58;10.68;;;9.74;;
2430;SDS011;1226;48.998;9.300;2022-07-25T09:48:24;12.82;;;10.36;;
2430;SDS011;1226;48.998;9.300;2022-07-25T09:50:51;11.80;;;10.64;;
2430;SDS011;1226;48.998;9.300;2022-07-25T09:53:15;10.72;;;9.82;;
2430;SDS011;1226;48.998;9.300;2022-07-25T09:55:41;11.20;;;9.76;;
2430;SDS011;1226;48.998;9.300;2022-07-25T09:58:07;10.28;;;9.28;;
2430;SDS011;1226;48.998;9.300;2022-07-25T10:00:33;13.12;;;9.28;;
2430;SDS011;1226;48.998;9.300;2022-07-25T10:03:09;10.58;;;9.68;;
2430;SDS011;1226;48.998;9.300;2022-07-25T10:05:36;11.38;;;10.18;;
2430;SDS011;1226;48.998;9.300;2022-07-25T10:07:56;10.22;;;9.16;;
2430;SDS011;1226;48.998;9.300;2022-07-25T10:10:23;9.34;;;8.42;;
2430;SDS011;1226;48.998;9.300;2022-07-25T10:15:20;9.06;;;8.20;;
2430;SDS011;1226;48.998;9.300;2022-07-25T10:17:46;7.96;;;7.26;;
2430;SDS011;1226;48.998;9.300;2022-07-25T10:20:11;8.72;;;7.92;;
2430;SDS011;1226;48.998;9.300;2022-07-25T10:22:39;8.14;;;7.34;;
2430;SDS011;1226;48.998;9.300;2022-07-25T10:25:10;8.26;;;7.46;;
2430;SDS011;1226;48.998;9.300;2022-07-25T10:27:40;7.88;;;7.18;;
2430;SDS011;1226;48.998;9.300;2022-07-25T10:30:01;8.12;;;7.32;;
2430;SDS011;1226;48.998;9.300;2022-07-25T10:32:31;7.78;;;7.08;;
2430;SDS011;1226;48.998;9.300;2022-07-25T10:34:53;8.72;;;7.92;;
2430;SDS011;1226;48.998;9.300;2022-07-25T10:37:24;8.30;;;7.12;;
2430;SDS011;1226;48.998;9.300;2022-07-25T10:39:44;11.06;;;7.86;;
2430;SDS011;1226;48.998;9.300;2022-07-25T10:42:11;11.14;;;7.12;;
2430;SDS011;1226;48.998;9.300;2022-07-25T10:44:42;7.50;;;6.88;;
2430;SDS011;1226;48.998;9.300;2022-07-25T10:47:04;8.08;;;7.38;;
2430;SDS011;1226;48.998;9.300;2022-07-25T10:49:33;7.92;;;7.22;;
2430;SDS011;1226;48.998;9.300;2022-07-25T10:51:57;7.36;;;6.76;;
2430;SDS011;1226;48.998;9.300;2022-07-25T10:54:22;7.10;;;6.44;;
2430;SDS011;1226;48.998;9.300;2022-07-25T10:56:51;7.02;;;6.42;;
2430;SDS011;1226;48.998;9.300;2022-07-25T10:59:24;7.66;;;6.96;;
2430;SDS011;1226;48.998;9.300;2022-07-25T11:01:42;8.90;;;7.04;;
2430;SDS011;1226;48.998;9.300;2022-07-25T11:04:13;7.60;;;7.00;;
2430;SDS011;1226;48.998;9.300;2022-07-25T11:06:37;8.34;;;7.00;;
2430;SDS011;1226;48.998;9.300;2022-07-25T11:09:02;8.70;;;7.90;;
2430;SDS011;1226;48.998;9.300;2022-07-25T11:11:33;7.48;;;6.78;;
2430;SDS011;1226;48.998;9.300;2022-07-25T11:13:57;7.74;;;7.08;;
2430;SDS011;1226;48.998;9.300;2022-07-25T11:16:25;7.92;;;7.22;;
2430;SDS011;1226;48.998;9.300;2022-07-25T11:18:49;8.62;;;7.82;;
2430;SDS011;1226;48.998;9.300;2022-07-25T11:21:15;8.00;;;7.30;;
2430;SDS011;1226;48.998;9.300;2022-07-25T11:23:40;10.84;;;7.58;;
2430;SDS011;1226;48.998;9.300;2022-07-25T11:26:08;7.50;;;6.82;;
2430;SDS011;1226;48.998;9.300;2022-07-25T11:28:36;7.16;;;6.56;;
2430;SDS011;1226;48.998;9.300;2022-07-25T11:31:03;8.44;;;7.60;;
2430;SDS011;1226;48.998;9.300;2022-07-25T11:33:27;8.52;;;7.30;;
2430;SDS011;1226;48.998;9.300;2022-07-25T11:35:53;9.36;;;8.00;;
2430;SDS011;1226;48.998;9.300;2022-07-25T11:38:19;8.02;;;7.22;;
2430;SDS011;1226;48.998;9.300;2022-07-25T11:40:45;8.30;;;7.48;;
2430;SDS011;1226;48.998;9.300;2022-07-25T11:43:18;7.88;;;6.98;;
2430;SDS011;1226;48.998;9.300;2022-07-25T11:45:37;7.24;;;6.64;;
2430;SDS011;1226;48.998;9.300;2022-07-25T11:48:04;8.20;;;7.32;;
2430;SDS011;1226;48.998;9.300;2022-07-25T11:50:30;8.22;;;7.20;;
2430;SDS011;1226;48.998;9.300;2022-07-25T11:52:58;7.60;;;6.90;;
2430;SDS011;1226;48.998;9.300;2022-07-25T11:55:26;8.10;;;7.40;;
2430;SDS011;1226;48.998;9.300;2022-07-25T11:57:49;8.32;;;7.46;;
2430;SDS011;1226;48.998;9.300;2022-07-25T12:00:16;7.84;;;7.18;;
2430;SDS011;1226;48.998;9.300;2022-07-25T12:02:40;8.10;;;7.30;;
2430;SDS011;1226;48.998;9.300;2022-07-25T12:05:07;10.28;;;7.12;;
2430;SDS011;1226;48.998;9.300;2022-07-25T12:10:07;9.06;;;8.12;;
2430;SDS011;1226;48.998;9.300;2022-07-25T12:15:02;7.32;;;6.62;;
2430;SDS011;1226;48.998;9.300;2022-07-25T12:17:28;8.66;;;7.08;;
2430;SDS011;1226;48.998;9.300;2022-07-25T12:19:54;8.88;;;7.26;;
2430;SDS011;1226;48.998;9.300;2022-07-25T12:22:20;8.04;;;7.30;;
2430;SDS011;1226;48.998;9.300;2022-07-25T12:24:46;8.20;;;7.30;;
2430;SDS011;1226;48.998;9.300;2022-07-25T12:27:12;8.40;;;7.56;;
2430;SDS011;1226;48.998;9.300;2022-07-25T12:29:38;8.94;;;8.04;;
2430;SDS011;1226;48.998;9.300;2022-07-25T12:32:03;9.62;;;7.92;;
2430;SDS011;1226;48.998;9.300;2022-07-25T12:34:29;9.34;;;7.06;;
2430;SDS011;1226;48.998;9.300;2022-07-25T12:36:55;7.68;;;7.08;;
2430;SDS011;1226;48.998;9.300;2022-07-25T12:39:21;8.32;;;7.52;;
2430;SDS011;1226;48.998;9.300;2022-07-25T12:41:47;9.16;;;7.60;;
2430;SDS011;1226;48.998;9.300;2022-07-25T12:44:13;9.10;;;8.30;;
2430;SDS011;1226;48.998;9.300;2022-07-25T12:46:39;10.04;;;7.90;;
2430;SDS011;1226;48.998;9.300;2022-07-25T12:49:04;7.86;;;7.16;;
2430;SDS011;1226;48.998;9.300;2022-07-25T12:51:30;8.82;;;7.66;;
2430;SDS011;1226;48.998;9.300;2022-07-25T12:53:56;8.26;;;7.46;;
2430;SDS011;1226;48.998;9.300;2022-07-25T12:56:22;7.88;;;7.08;;
2430;SDS011;1226;48.998;9.300;2022-07-25T12:58:48;8.94;;;8.08;;
2430;SDS011;1226;48.998;9.300;2022-07-25T13:01:14;8.10;;;7.40;;
2430;SDS011;1226;48.998;9.300;2022-07-25T13:03:40;13.76;;;7.54;;
2430;SDS011;1226;48.998;9.300;2022-07-25T13:06:05;8.10;;;7.30;;
2430;SDS011;1226;48.998;9.300;2022-07-25T13:08:31;8.56;;;7.82;;
2430;SDS011;1226;48.998;9.300;2022-07-25T13:10:57;9.30;;;8.50;;
2430;SDS011;1226;48.998;9.300;2022-07-25T13:13:23;8.80;;;8.00;;
2430;SDS011;1226;48.998;9.300;2022-07-25T13:15:49;9.96;;;8.28;;
2430;SDS011;1226;48.998;9.300;2022-07-25T13:18:15;8.90;;;8.10;;
2430;SDS011;1226;48.998;9.300;2022-07-25T13:20:41;10.98;;;8.94;;
2430;SDS011;1226;48.998;9.300;2022-07-25T13:23:07;9.48;;;8.68;;
2430;SDS011;1226;48.998;9.300;2022-07-25T13:25:32;9.26;;;8.32;;
2430;SDS011;1226;48.998;9.300;2022-07-25T13:27:58;9.32;;;8.42;;
2430;SDS011;1226;48.998;9.300;2022-07-25T13:30:24;9.64;;;8.80;;
2430;SDS011;1226;48.998;9.300;2022-07-25T13:32:50;8.10;;;7.28;;
2430;SDS011;1226;48.998;9.300;2022-07-25T13:35:16;9.10;;;8.08;;
2430;SDS011;1226;48.998;9.300;2022-07-25T13:37:42;9.44;;;7.90;;
2430;SDS011;1226;48.998;9.300;2022-07-25T13:40:08;9.92;;;8.94;;
2430;SDS011;1226;48.998;9.300;2022-07-25T13:42:34;10.08;;;8.00;;
2430;SDS011;1226;48.998;9.300;2022-07-25T13:45:00;8.78;;;7.88;;
2430;SDS011;1226;48.998;9.300;2022-07-25T13:47:25;9.36;;;8.46;;
2430;SDS011;1226;48.998;9.300;2022-07-25T13:49:51;7.80;;;7.20;;
2430;SDS011;1226;48.998;9.300;2022-07-25T13:52:17;8.22;;;7.52;;
2430;SDS011;1226;48.998;9.300;2022-07-25T13:54:43;9.64;;;8.64;;
2430;SDS011;1226;48.998;9.300;2022-07-25T13:57:09;9.36;;;8.42;;
2430;SDS011;1226;48.998;9.300;2022-07-25T13:59:35;9.60;;;8.48;;
2430;SDS011;1226;48.998;9.300;2022-07-25T14:02:01;11.42;;;9.28;;
2430;SDS011;1226;48.998;9.300;2022-07-25T14:04:26;9.74;;;8.74;;
2430;SDS011;1226;48.998;9.300;2022-07-25T14:06:52;10.52;;;9.52;;
2430;SDS011;1226;48.998;9.300;2022-07-25T14:09:19;9.62;;;8.72;;
2430;SDS011;1226;48.998;9.300;2022-07-25T14:11:44;10.20;;;9.24;;
2430;SDS011;1226;48.998;9.300;2022-07-25T14:14:10;10.32;;;9.42;;
2430;SDS011;1226;48.998;9.300;2022-07-25T14:16:36;10.76;;;9.80;;
2430;SDS011;1226;48.998;9.300;2022-07-25T14:19:02;9.52;;;8.72;;
2430;SDS011;1226;48.998;9.300;2022-07-25T14:21:28;10.58;;;9.12;;
2430;SDS011;1226;48.998;9.300;2022-07-25T14:23:53;10.18;;;9.22;;
2430;SDS011;1226;48.998;9.300;2022-07-25T14:26:19;10.12;;;9.08;;
2430;SDS011;1226;48.998;9.300;2022-07-25T14:28:45;17.16;;;9.70;;
2430;SDS011;1226;48.998;9.300;2022-07-25T14:31:11;10.74;;;9.80;;
2430;SDS011;1226;48.998;9.300;2022-07-25T14:33:37;10.54;;;9.44;;
2430;SDS011;1226;48.998;9.300;2022-07-25T14:36:03;12.04;;;10.86;;
2430;SDS011;1226;48.998;9.300;2022-07-25T14:38:29;12.34;;;10.10;;
2430;SDS011;1226;48.998;9.300;2022-07-25T14:40:54;9.90;;;9.00;;
2430;SDS011;1226;48.998;9.300;2022-07-25T14:43:20;9.80;;;8.64;;
2430;SDS011;1226;48.998;9.300;2022-07-25T14:45:46;11.00;;;9.28;;
2430;SDS011;1226;48.998;9.300;2022-07-25T14:48:12;10.24;;;9.24;;
2430;SDS011;1226;48.998;9.300;2022-07-25T14:50:38;10.42;;;8.62;;
2430;SDS011;1226;48.998;9.300;2022-07-25T14:53:04;9.62;;;8.72;;
2430;SDS011;1226;48.998;9.300;2022-07-25T14:55:30;11.50;;;10.40;;
2430;SDS011;1226;48.998;9.300;2022-07-25T14:57:55;11.06;;;9.50;;
2430;SDS011;1226;48.998;9.300;2022-07-25T15:00:21;12.82;;;9.84;;
2430;SDS011;1226;48.998;9.300;2022-07-25T15:02:47;10.68;;;9.06;;